Time;durP1;ratioP1;P1;durP2;ratioP2;P2;SDS_P1;SDS_P2;PMS_P1;PMS_P2;Temp;Humidity;BMP_temperature;BMP_pressure;BME280_temperature;BME280_humidity;BME280_pressure;Samples;Min_cycle;Max_cycle;Signal;HPM_P1;HPM_P2
2024/02/17 00:01:28;;;;;;;9.30;1.95;;;;;;;-146.27;86.72;42289.69;5062882;28;20024;-73
2024/02/17 00:03:54;;;;;;;5.20;2.05;;;;;;;-146.27;86.86;42253.88;5069799;28;20122;-73
2024/02/17 00:06:20;;;;;;;9.30;1.98;;;;;;;-146.27;86.97;42263.81;5072299;28;20059;-72
2024/02/17 00:08:45;;;;;;;7.07;1.80;;;;;;;-146.27;86.40;42204.16;5071240;28;20107;-72
2024/02/17 00:11:10;;;;;;;6.70;1.90;;;;;;;-146.27;86.40;42245.94;5071200;28;20112;-73
2024/02/17 00:13:36;;;;;;;6.13;1.73;;;;;;;-146.27;86.46;42277.75;5064571;28;20063;-72
2024/02/17 00:16:02;;;;;;;6.43;1.52;;;;;;;-146.27;86.66;42281.72;5071559;28;20028;-72
2024/02/17 00:18:28;;;;;;;3.22;1.70;;;;;;;-146.27;86.42;42263.81;5071767;28;20445;-72
2024/02/17 00:20:57;;;;;;;6.57;1.52;;;;;;;-146.27;86.45;42265.81;5070729;28;20067;-73
2024/02/17 00:23:22;;;;;;;6.40;1.52;;;;;;;-146.27;86.79;42261.84;5070490;28;20028;-72
2024/02/17 00:25:48;;;;;;;5.10;1.50;;;;;;;-146.27;86.62;42259.84;5071497;28;21622;-73
2024/02/17 00:28:14;;;;;;;8.95;2.00;;;;;;;-146.27;86.88;42287.69;5069542;28;20687;-72
2024/02/17 00:30:40;;;;;;;3.88;1.70;;;;;;;-146.27;87.25;42305.59;5070843;28;20492;-73
2024/02/17 00:33:05;;;;;;;5.80;1.92;;;;;;;-146.27;86.70;42234.00;5071165;28;20085;-73
2024/02/17 00:35:31;;;;;;;4.80;1.75;;;;;;;-146.27;86.51;42261.84;5070648;28;20032;-74
2024/02/17 00:37:56;;;;;;;4.97;1.67;;;;;;;-146.27;86.69;42261.84;5070633;28;20162;-73
2024/02/17 00:40:21;;;;;;;4.45;1.50;;;;;;;-146.27;86.51;42293.66;5070697;28;20131;-73
2024/02/17 00:42:47;;;;;;;6.20;1.48;;;;;;;-146.27;86.59;42237.97;5069258;28;20028;-73
2024/02/17 00:45:12;;;;;;;9.43;2.05;;;;;;;-146.27;86.65;42234.00;5069268;28;20664;-73
2024/02/17 00:47:37;;;;;;;7.97;1.58;;;;;;;-146.27;86.99;42234.00;5069376;28;20067;-73
2024/02/17 00:50:05;;;;;;;4.07;1.40;;;;;;;-146.27;86.86;42261.84;5069179;28;20556;-73
2024/02/17 00:52:30;;;;;;;5.03;2.03;;;;;;;-146.27;86.70;42222.06;5068899;28;20036;-72
2024/02/17 00:54:55;;;;;;;7.78;2.03;;;;;;;-146.27;86.75;42251.91;5069793;28;20438;-72
2024/02/17 00:57:21;;;;;;;8.57;2.00;;;;;;;-146.27;86.75;42261.84;5065793;28;20896;-72
2024/02/17 00:59:46;;;;;;;3.47;1.60;;;;;;;-146.27;86.80;42281.72;5069739;28;20400;-73
2024/02/17 01:02:11;;;;;;;7.85;1.70;;;;;;;-146.27;87.02;42277.75;5060200;28;20511;-73
2024/02/17 01:04:37;;;;;;;10.48;2.38;;;;;;;-146.27;86.83;42237.97;5070166;28;20032;-73
2024/02/17 01:07:02;;;;;;;10.40;1.92;;;;;;;-146.27;86.80;42275.75;5073647;28;20483;-72
2024/02/17 01:09:28;;;;;;;6.35;1.98;;;;;;;-146.27;86.67;42253.88;5077526;28;20031;-72
2024/02/17 01:11:53;;;;;;;10.15;2.00;;;;;;;-146.27;86.93;42257.88;5067405;28;20103;-73
2024/02/17 01:14:20;;;;;;;11.65;1.73;;;;;;;-146.27;87.10;42311.56;5068809;28;20024;-73
2024/02/17 01:16:46;;;;;;;9.20;2.08;;;;;;;-146.27;87.27;42309.56;5068476;28;20481;-73
2024/02/17 01:19:11;;;;;;;9.00;2.17;;;;;;;-146.27;87.21;42297.63;5061775;28;20027;-72
2024/02/17 01:21:36;;;;;;;9.20;2.88;;;;;;;-146.27;87.70;42333.44;5070105;28;20035;-72
2024/02/17 01:24:02;;;;;;;5.07;1.75;;;;;;;-146.27;87.62;42353.31;5068988;28;20048;-72
2024/02/17 01:26:28;;;;;;;7.68;2.00;;;;;;;-146.27;87.64;42343.38;5071582;28;20118;-71
2024/02/17 01:28:53;;;;;;;7.40;1.98;;;;;;;-146.27;87.43;42343.38;5066417;28;20172;-71
2024/02/17 01:31:19;;;;;;;5.70;2.05;;;;;;;-146.27;87.54;42313.53;5067624;28;20028;-71
2024/02/17 01:33:46;;;;;;;9.15;1.80;;;;;;;-146.27;87.14;42295.66;5069688;28;20036;-71
2024/02/17 01:36:16;;;;;;;8.15;2.28;;;;;;;-146.27;87.31;42289.69;5069616;28;20032;-71
2024/02/17 01:38:42;;;;;;;9.25;1.95;;;;;;;-146.27;87.16;42319.50;5072645;28;20028;-70
2024/02/17 01:41:08;;;;;;;6.43;1.85;;;;;;;-146.27;87.29;42265.81;5068034;28;20036;-71
2024/02/17 01:43:34;;;;;;;7.32;1.90;;;;;;;-146.27;86.90;42285.72;5068391;28;20370;-70
2024/02/17 01:45:59;;;;;;;6.50;2.00;;;;;;;-146.27;87.10;42337.41;5068573;28;20073;-71
2024/02/17 01:48:25;;;;;;;5.78;2.05;;;;;;;-146.27;86.91;42305.59;5068788;28;20020;-71
2024/02/17 01:50:51;;;;;;;10.07;2.10;;;;;;;-146.27;87.05;42309.56;5069662;28;20070;-71
2024/02/17 01:53:16;;;;;;;8.82;2.00;;;;;;;-146.27;87.33;42343.38;5068105;28;20462;-69
2024/02/17 01:55:42;;;;;;;8.63;2.40;;;;;;;-146.27;87.18;42319.50;5066256;28;20028;-70
2024/02/17 01:58:07;;;;;;;13.52;2.80;;;;;;;-146.27;87.03;42293.66;5066256;28;20028;-71
2024/02/17 02:00:33;;;;;;;8.32;2.60;;;;;;;-146.27;86.84;42309.56;5067993;28;20024;-72
2024/02/17 02:02:59;;;;;;;10.52;2.20;;;;;;;-146.27;87.51;42351.34;5069230;28;20110;-71
2024/02/17 02:05:24;;;;;;;11.35;2.33;;;;;;;-146.27;87.59;42341.38;5068530;28;20443;-71
2024/02/17 02:07:50;;;;;;;4.18;2.22;;;;;;;-146.27;87.16;42321.50;5067950;28;20028;-71
2024/02/17 02:10:15;;;;;;;8.07;2.10;;;;;;;-146.27;87.18;42315.53;5072080;28;20043;-70
2024/02/17 02:12:41;;;;;;;4.55;1.90;;;;;;;-146.27;87.36;42317.53;5064967;28;20039;-71
2024/02/17 02:15:10;;;;;;;6.50;1.80;;;;;;;-146.27;87.53;42403.03;5069045;28;20024;-69
2024/02/17 02:17:39;;;;;;;7.43;2.33;;;;;;;-146.27;87.83;42381.16;5067572;28;20550;-71
2024/02/17 02:20:06;;;;;;;8.25;2.22;;;;;;;-146.27;87.29;42341.38;5068051;28;20467;-71
2024/02/17 02:22:32;;;;;;;10.98;4.18;;;;;;;-146.27;87.46;42341.38;5069670;28;20029;-72
2024/02/17 02:24:59;;;;;;;11.10;2.67;;;;;;;-146.27;87.38;42337.41;5069303;28;20047;-71
2024/02/17 02:27:25;;;;;;;13.88;2.72;;;;;;;-146.27;87.27;42325.47;5067726;28;20587;-71
2024/02/17 02:29:52;;;;;;;7.45;2.20;;;;;;;-146.27;87.83;42361.28;5067680;28;20078;-70
2024/02/17 02:32:18;;;;;;;10.02;2.63;;;;;;;-146.27;87.97;42347.34;5072702;28;20029;-70
2024/02/17 02:34:43;;;;;;;8.52;2.35;;;;;;;-146.27;87.90;42357.28;5068617;28;20031;-71
2024/02/17 02:37:09;;;;;;;7.93;2.13;;;;;;;-146.27;88.44;42416.97;5064502;28;20021;-71
2024/02/17 02:39:35;;;;;;;10.18;3.10;;;;;;;-146.27;87.99;42349.34;5064553;28;20094;-71
2024/02/17 02:42:00;;;;;;;8.57;2.25;;;;;;;-146.27;88.12;42383.16;5054483;28;20039;-71
2024/02/17 02:44:25;;;;;;;9.00;2.42;;;;;;;-146.27;87.91;42379.16;5067163;28;20032;-71
2024/02/17 02:46:51;;;;;;;9.70;2.50;;;;;;;-146.27;87.78;42373.22;5068067;28;20028;-71
2024/02/17 02:49:16;;;;;;;9.00;2.97;;;;;;;-146.27;88.29;42424.91;5068825;28;20111;-71
2024/02/17 02:51:42;;;;;;;7.43;2.38;;;;;;;-146.27;88.41;42387.13;5068158;28;20020;-70
2024/02/17 02:54:07;;;;;;;9.05;2.50;;;;;;;-146.27;88.02;42383.16;5068183;28;20104;-71
2024/02/17 02:56:32;;;;;;;11.57;2.45;;;;;;;-146.27;88.04;42375.19;5068138;28;20035;-71
2024/02/17 02:58:58;;;;;;;9.10;2.70;;;;;;;-146.27;87.77;42345.38;5067131;28;20039;-70
2024/02/17 03:01:23;;;;;;;11.77;2.70;;;;;;;-146.27;88.70;42428.88;5068982;28;20048;-70
2024/02/17 03:03:51;;;;;;;9.20;2.60;;;;;;;-146.27;89.06;42444.81;5067902;28;20504;-72
2024/02/17 03:06:16;;;;;;;7.50;2.55;;;;;;;-146.27;88.32;42373.22;5068431;28;20021;-73
2024/02/17 03:08:42;;;;;;;9.90;2.80;;;;;;;-146.27;88.77;42409.00;5068718;28;20031;-73
2024/02/17 03:11:07;;;;;;;14.02;2.95;;;;;;;-146.27;88.70;42401.06;5068375;28;20028;-71
2024/02/17 03:13:36;;;;;;;11.63;2.55;;;;;;;-146.27;88.44;42381.16;5067733;28;20409;-71
2024/02/17 03:16:01;;;;;;;9.70;2.45;;;;;;;-146.27;88.10;42369.22;5067956;28;20037;-70
2024/02/17 03:18:27;;;;;;;18.08;3.10;;;;;;;-146.27;89.01;42456.72;5069551;28;20104;-72
2024/02/17 03:20:52;;;;;;;11.75;3.63;;;;;;;-146.27;88.75;42416.97;5071367;28;20021;-72
2024/02/17 03:23:17;;;;;;;11.65;4.07;;;;;;;-146.27;89.07;42391.09;5067822;28;20097;-71
2024/02/17 03:25:43;;;;;;;13.60;2.80;;;;;;;-146.27;88.83;42393.09;5068492;28;20052;-71
2024/02/17 03:28:08;;;;;;;9.95;3.17;;;;;;;-146.27;88.51;42387.13;5067492;28;20025;-71
2024/02/17 03:30:34;;;;;;;7.20;2.80;;;;;;;-146.27;88.58;42389.13;5067040;28;20468;-71
2024/02/17 03:33:00;;;;;;;12.65;3.35;;;;;;;-146.27;89.22;42424.91;5072593;28;20042;-70
2024/02/17 03:35:25;;;;;;;9.75;3.10;;;;;;;-146.27;89.16;42426.91;5082016;28;20021;-70
2024/02/17 03:37:51;;;;;;;10.38;3.15;;;;;;;-146.27;89.93;42460.72;5069998;28;20103;-71
2024/02/17 03:40:16;;;;;;;7.72;2.90;;;;;;;-146.27;89.64;42448.78;5072571;28;20107;-71
2024/02/17 03:42:42;;;;;;;9.18;3.10;;;;;;;-146.27;89.90;42428.88;5073086;28;20065;-71
2024/02/17 03:45:07;;;;;;;14.55;3.10;;;;;;;-146.27;89.78;42440.81;5066088;28;20069;-72
2024/02/17 03:47:33;;;;;;;8.82;2.80;;;;;;;-146.27;89.65;42440.81;5073304;28;20040;-71
2024/02/17 03:49:58;;;;;;;10.50;2.47;;;;;;;-146.27;90.15;42460.72;5072087;28;20016;-71
2024/02/17 03:52:24;;;;;;;6.80;2.85;;;;;;;-146.27;89.67;42450.75;5074442;28;20066;-70
2024/02/17 03:54:49;;;;;;;9.95;2.97;;;;;;;-146.27;89.40;42440.81;5076248;28;20039;-71
2024/02/17 03:57:17;;;;;;;12.23;3.15;;;;;;;-146.27;89.53;42422.94;5070684;28;20036;-70
2024/02/17 03:59:42;;;;;;;10.80;3.70;;;;;;;-146.27;89.46;42480.59;5070412;28;20099;-71
2024/02/17 04:02:07;;;;;;;10.25;2.88;;;;;;;-146.27;89.77;42426.91;5075503;28;20107;-71
2024/02/17 04:04:33;;;;;;;11.95;3.80;;;;;;;-146.27;89.46;42424.91;5071244;28;20032;-72
2024/02/17 04:06:58;;;;;;;8.05;3.05;;;;;;;-146.27;89.44;42428.88;5070939;28;20387;-71
2024/02/17 04:09:24;;;;;;;12.20;2.92;;;;;;;-146.27;89.51;42436.84;5071418;28;20028;-71
2024/02/17 04:11:50;;;;;;;8.60;2.85;;;;;;;-146.27;89.67;42436.84;5072313;28;20028;-71
2024/02/17 04:14:15;;;;;;;14.85;3.78;;;;;;;-146.27;89.43;42395.09;5070453;28;20024;-71
2024/02/17 04:16:40;;;;;;;8.88;3.10;;;;;;;-146.27;89.83;42422.94;5073257;28;20039;-71
2024/02/17 04:19:06;;;;;;;11.88;3.45;;;;;;;-146.27;89.48;42432.88;5069824;28;20028;-71
2024/02/17 04:21:31;;;;;;;9.43;2.95;;;;;;;-146.27;89.07;42403.03;5071703;28;20028;-72
2024/02/17 04:23:57;;;;;;;14.15;3.22;;;;;;;-146.27;89.63;42422.94;5069870;28;20049;-71
2024/02/17 04:26:22;;;;;;;12.50;3.03;;;;;;;-146.27;89.80;42476.63;5073339;28;20028;-71
2024/02/17 04:28:47;;;;;;;9.10;3.60;;;;;;;-146.27;89.40;42416.97;5070653;28;20396;-71
2024/02/17 04:31:13;;;;;;;16.90;3.28;;;;;;;-146.27;89.48;42420.94;5070230;28;20487;-73
2024/02/17 04:33:38;;;;;;;15.27;3.22;;;;;;;-146.27;89.34;42373.22;5070281;28;20032;-71
2024/02/17 04:36:05;;;;;;;12.15;3.90;;;;;;;-146.27;89.56;42420.94;5068888;28;20038;-71
2024/02/17 04:38:31;;;;;;;9.15;3.55;;;;;;;-146.27;89.21;42418.94;5072576;28;20028;-70
2024/02/17 04:40:56;;;;;;;11.75;2.95;;;;;;;-146.27;89.49;42412.97;5070828;28;20032;-70
2024/02/17 04:43:21;;;;;;;9.05;3.13;;;;;;;-146.27;89.14;42405.03;5070108;28;20115;-72
2024/02/17 04:45:47;;;;;;;10.38;3.50;;;;;;;-146.27;89.16;42432.88;5068861;28;20056;-71
2024/02/17 04:48:12;;;;;;;8.88;2.75;;;;;;;-146.27;89.20;42448.78;5068924;28;20031;-72
2024/02/17 04:50:38;;;;;;;10.23;2.90;;;;;;;-146.27;89.52;42456.72;5070591;28;20484;-72
2024/02/17 04:53:03;;;;;;;13.85;3.17;;;;;;;-146.27;89.76;42440.81;5070163;28;20032;-72
2024/02/17 04:55:30;;;;;;;13.23;3.20;;;;;;;-146.27;89.25;42412.97;5071336;28;20035;-71
2024/02/17 04:57:56;;;;;;;9.77;3.20;;;;;;;-146.27;89.45;42464.69;5069185;28;20040;-71
2024/02/17 05:00:22;;;;;;;8.57;3.60;;;;;;;-146.27;89.63;42456.72;5063896;28;20421;-71
2024/02/17 05:02:47;;;;;;;8.40;3.67;;;;;;;-146.27;89.86;42432.88;5068749;28;20028;-71
2024/02/17 05:05:16;;;;;;;8.52;3.00;;;;;;;-146.27;89.60;42432.88;5068938;28;20069;-70
2024/02/17 05:07:43;;;;;;;11.15;3.80;;;;;;;-146.27;89.73;42460.72;5070134;28;20028;-71
2024/02/17 05:10:09;;;;;;;16.42;3.95;;;;;;;-146.27;90.18;42456.72;5063254;28;20072;-72
2024/02/17 05:12:34;;;;;;;6.43;3.25;;;;;;;-146.27;89.72;42446.78;5070018;28;20123;-71
2024/02/17 05:15:02;;;;;;;8.13;3.63;;;;;;;-146.27;89.63;42448.78;5067641;28;20028;-71
2024/02/17 05:17:28;;;;;;;16.40;3.88;;;;;;;-146.27;89.64;42428.88;5069133;28;20020;-72
2024/02/17 05:19:53;;;;;;;15.43;3.47;;;;;;;-146.27;89.78;42456.72;5068661;28;20457;-71
2024/02/17 05:22:18;;;;;;;14.70;3.75;;;;;;;-146.27;89.99;42444.81;5069558;28;20733;-72
2024/02/17 05:24:44;;;;;;;13.10;2.88;;;;;;;-146.27;89.53;42416.97;5069936;28;20447;-71
2024/02/17 05:27:09;;;;;;;15.23;4.18;;;;;;;-146.27;89.70;42440.81;5069357;28;20476;-70
2024/02/17 05:29:34;;;;;;;10.60;3.38;;;;;;;-146.27;89.52;42426.91;5069823;28;20503;-71
2024/02/17 05:32:00;;;;;;;10.82;3.78;;;;;;;-146.27;89.37;42440.81;5068351;28;20480;-70
2024/02/17 05:34:25;;;;;;;11.82;3.28;;;;;;;-146.27;89.34;42426.91;5067971;28;20461;-71
2024/02/17 05:36:51;;;;;;;11.90;3.40;;;;;;;-146.27;89.73;42470.66;5065181;28;20126;-71
2024/02/17 05:39:16;;;;;;;11.75;3.15;;;;;;;-146.27;89.68;42434.84;5068563;28;20477;-71
2024/02/17 05:41:42;;;;;;;7.25;3.10;;;;;;;-146.27;89.93;42468.66;5068627;28;20040;-71
2024/02/17 05:44:07;;;;;;;10.63;3.47;;;;;;;-146.27;89.91;42458.72;5069629;28;20408;-70
2024/02/17 05:46:33;;;;;;;12.13;4.47;;;;;;;-146.27;89.45;42418.94;5070002;28;20408;-71
2024/02/17 05:48:58;;;;;;;15.68;3.58;;;;;;;-146.27;89.53;42456.72;5070376;28;20022;-70
2024/02/17 05:51:24;;;;;;;8.10;3.47;;;;;;;-146.27;89.39;42448.78;5075395;28;20449;-71
2024/02/17 05:53:49;;;;;;;8.30;3.42;;;;;;;-146.27;89.18;42428.88;5074507;28;20032;-71
2024/02/17 05:56:15;;;;;;;10.77;3.47;;;;;;;-146.27;89.30;42462.69;5070109;28;20039;-71
2024/02/17 05:58:40;;;;;;;6.90;3.20;;;;;;;-146.27;89.24;42440.81;5068816;28;20484;-71
2024/02/17 06:01:07;;;;;;;6.28;3.20;;;;;;;-146.27;89.37;42456.72;5064071;28;20024;-72
2024/02/17 06:03:33;;;;;;;11.77;3.60;;;;;;;-146.27;89.37;42468.66;5077623;28;20024;-71
2024/02/17 06:05:58;;;;;;;12.13;4.03;;;;;;;-146.27;89.59;42438.84;5073911;28;20031;-72
2024/02/17 06:08:24;;;;;;;13.27;3.85;;;;;;;-146.27;89.51;42452.75;5070267;28;20396;-72
2024/02/17 06:10:49;;;;;;;7.63;4.00;;;;;;;-146.27;89.48;42470.66;5079987;28;20040;-73
2024/02/17 06:13:15;;;;;;;9.38;3.50;;;;;;;-146.27;89.54;42450.75;5071675;28;20032;-73
2024/02/17 06:15:43;;;;;;;13.68;3.85;;;;;;;-146.27;89.58;42448.78;5072381;28;20035;-73
2024/02/17 06:23:38;;;;;;;;;;;;;;;-146.27;89.76;42444.81;5069194;28;20424;-72
2024/02/17 06:26:04;;;;;;;15.43;3.97;;;;;;;-146.27;89.76;42484.56;5072540;28;19916;-73
2024/02/17 06:28:29;;;;;;;11.73;3.80;;;;;;;-146.27;89.78;42472.66;5068275;28;20064;-73
2024/02/17 06:30:54;;;;;;;10.35;4.30;;;;;;;-146.27;90.24;42504.47;5071219;28;20032;-72
2024/02/17 06:33:20;;;;;;;18.60;4.45;;;;;;;-146.27;90.23;42482.59;5071711;28;20032;-73
2024/02/17 06:35:46;;;;;;;11.93;3.83;;;;;;;-146.27;90.37;42482.59;5067910;28;20112;-73
2024/02/17 06:38:11;;;;;;;20.92;4.47;;;;;;;-146.27;90.45;42472.66;5068011;28;20055;-73
2024/02/17 06:40:37;;;;;;;13.05;4.45;;;;;;;-146.27;90.37;42450.75;5067824;28;20182;-73
2024/02/17 06:43:03;;;;;;;8.35;4.10;;;;;;;-146.27;90.15;42486.56;5068533;28;20028;-73
2024/02/17 06:45:29;;;;;;;13.30;3.85;;;;;;;-146.27;90.28;42492.53;5065942;28;20067;-73
2024/02/17 06:47:54;;;;;;;11.25;4.60;;;;;;;-146.27;90.55;42504.47;5066641;28;20066;-72
2024/02/17 06:50:20;;;;;;;11.57;4.50;;;;;;;-146.27;90.22;42476.63;5068376;28;20119;-73
2024/02/17 06:52:45;;;;;;;18.27;4.80;;;;;;;-146.27;90.15;42486.56;5068589;28;20028;-73
2024/02/17 06:55:10;;;;;;;12.98;4.43;;;;;;;-146.27;89.91;42472.66;5063749;28;20064;-73
2024/02/17 06:57:37;;;;;;;14.35;4.55;;;;;;;-146.27;89.93;42466.69;5069383;28;20396;-73
2024/02/17 07:00:03;;;;;;;10.25;4.07;;;;;;;-146.27;89.86;42472.66;5074499;28;20043;-73
2024/02/17 07:02:30;;;;;;;17.90;5.13;;;;;;;-146.27;89.75;42472.66;5073739;28;20024;-73
2024/02/17 07:04:55;;;;;;;12.68;5.45;;;;;;;-146.27;89.68;42498.50;5074621;28;20028;-73
2024/02/17 07:07:23;;;;;;;17.15;5.03;;;;;;;-146.27;89.81;42488.56;5074701;28;21610;-73
2024/02/17 07:09:48;;;;;;;17.27;5.38;;;;;;;-146.27;89.83;42500.47;5075476;28;20480;-73
2024/02/17 07:12:13;;;;;;;14.45;5.60;;;;;;;-146.27;89.88;42520.38;5075723;28;20154;-72
2024/02/17 07:14:39;;;;;;;15.60;5.60;;;;;;;-146.27;89.94;42522.38;5081165;28;20051;-74
2024/02/17 07:17:04;;;;;;;14.75;5.05;;;;;;;-146.27;89.92;42516.41;5077194;28;20023;-72
2024/02/17 07:19:30;;;;;;;15.50;4.85;;;;;;;-146.27;90.13;42516.41;5078733;28;20055;-71
2024/02/17 07:21:56;;;;;;;20.05;5.95;;;;;;;-146.27;90.08;42528.31;5069370;28;20032;-71
2024/02/17 07:24:22;;;;;;;13.38;5.28;;;;;;;-146.27;90.39;42536.28;5074124;28;20048;-72
2024/02/17 07:26:48;;;;;;;14.63;5.35;;;;;;;-146.27;90.38;42532.31;5070225;28;20500;-71
2024/02/17 07:29:13;;;;;;;13.70;4.53;;;;;;;-146.27;90.14;42530.31;5071959;28;20028;-72
2024/02/17 07:31:42;;;;;;;14.13;5.22;;;;;;;-146.27;90.19;42528.31;5072810;28;20507;-73
2024/02/17 07:34:08;;;;;;;7.70;4.85;;;;;;;-146.27;90.44;42564.13;5073153;28;20385;-72
2024/02/17 07:36:34;;;;;;;18.63;5.47;;;;;;;-146.27;90.41;42552.19;5073234;28;20032;-71
2024/02/17 07:38:59;;;;;;;17.25;4.93;;;;;;;-146.27;90.28;42576.06;5073230;28;20021;-71
2024/02/17 07:41:26;;;;;;;12.63;5.47;;;;;;;-146.27;90.49;42588.00;5073094;28;20036;-72
2024/02/17 07:43:52;;;;;;;15.00;4.25;;;;;;;-146.27;90.39;42609.88;5073287;28;20017;-71
2024/02/17 07:46:18;;;;;;;13.77;4.53;;;;;;;-146.27;90.31;42586.00;5072307;28;20032;-71
2024/02/17 07:48:45;;;;;;;16.08;4.72;;;;;;;-146.27;90.16;42588.00;5071841;28;20115;-71
2024/02/17 07:51:11;;;;;;;13.63;4.75;;;;;;;-146.27;90.06;42615.84;5072312;28;20028;-73
2024/02/17 07:53:37;;;;;;;11.35;4.40;;;;;;;-146.27;90.02;42639.69;5070898;28;20031;-71
2024/02/17 07:56:02;;;;;;;12.02;4.85;;;;;;;-146.27;90.00;42647.66;5065719;28;20126;-71
2024/02/17 07:58:28;;;;;;;18.70;4.93;;;;;;;-146.27;89.90;42627.78;5059677;28;20446;-71
2024/02/17 08:00:53;;;;;;;21.25;5.10;;;;;;;-146.27;89.98;42703.34;5072610;28;20017;-72
2024/02/17 08:03:19;;;;;;;14.05;4.90;;;;;;;-146.27;90.00;42731.19;5072670;28;20054;-72
2024/02/17 08:05:44;;;;;;;12.68;5.28;;;;;;;-146.27;90.25;42765.00;5071507;28;20115;-71
2024/02/17 08:08:09;;;;;;;17.70;5.50;;;;;;;-146.27;90.07;42782.91;5071046;28;20476;-70
2024/02/17 08:10:35;;;;;;;17.35;5.47;;;;;;;-146.27;90.04;42794.84;5072384;28;20029;-71
2024/02/17 08:13:01;;;;;;;14.07;6.78;;;;;;;-146.27;90.26;42778.91;5072852;28;20029;-71
2024/02/17 08:15:27;;;;;;;22.10;5.45;;;;;;;-146.27;90.04;42794.84;5071620;28;20025;-71
2024/02/17 08:17:52;;;;;;;18.90;5.60;;;;;;;-146.27;89.77;42780.91;5072315;28;20020;-72
2024/02/17 08:20:17;;;;;;;16.10;5.78;;;;;;;-146.27;89.94;42798.81;5071874;28;20033;-72
2024/02/17 08:22:43;;;;;;;20.35;5.53;;;;;;;-146.27;89.64;42774.94;5072310;28;20162;-72
2024/02/17 08:25:09;;;;;;;20.73;6.63;;;;;;;-146.27;89.53;42818.69;5070626;28;20044;-71
2024/02/17 08:27:38;;;;;;;16.75;6.47;;;;;;;-146.27;89.50;42806.75;5070237;28;20578;-71
2024/02/17 08:30:05;;;;;;;16.27;5.63;;;;;;;-146.27;89.37;42818.69;5071770;28;20028;-72
2024/02/17 08:32:32;;;;;;;15.82;5.88;;;;;;;-146.27;89.48;42770.97;5071663;28;20029;-71
2024/02/17 08:34:57;;;;;;;15.07;5.72;;;;;;;-146.27;89.49;42818.69;5070160;28;20025;-72
2024/02/17 08:37:23;;;;;;;17.23;6.32;;;;;;;-146.27;89.94;42902.22;5069079;28;20412;-71
2024/02/17 08:39:49;;;;;;;15.23;6.25;;;;;;;-146.27;89.58;42826.66;5071668;28;20484;-71
2024/02/17 08:42:14;;;;;;;17.40;6.00;;;;;;;-146.27;89.17;42804.78;5071653;28;20695;-71
2024/02/17 08:44:39;;;;;;;17.90;5.68;;;;;;;-146.27;89.16;42836.59;5069717;28;20067;-71
2024/02/17 08:47:05;;;;;;;13.60;5.85;;;;;;;-146.27;89.47;42862.47;5069133;28;20052;-71
2024/02/17 08:49:31;;;;;;;22.73;6.47;;;;;;;-146.27;89.34;42866.44;5071043;28;20028;-71
2024/02/17 08:51:56;;;;;;;16.75;6.60;;;;;;;-146.27;89.45;42854.50;5070305;28;20029;-71
2024/02/17 08:54:25;;;;;;;17.05;6.35;;;;;;;-146.27;89.21;42842.56;5073228;28;20032;-71
2024/02/17 08:56:52;;;;;;;15.50;6.00;;;;;;;-146.27;89.08;42846.53;5070249;28;20028;-71
2024/02/17 08:59:17;;;;;;;14.95;5.75;;;;;;;-146.27;89.06;42870.41;5073027;28;20137;-71
2024/02/17 09:01:43;;;;;;;15.07;6.15;;;;;;;-146.27;89.04;42834.59;5074362;28;20028;-71
2024/02/17 09:04:08;;;;;;;17.02;6.03;;;;;;;-146.27;88.46;42806.75;5074338;28;20028;-72
2024/02/17 09:06:34;;;;;;;15.40;7.05;;;;;;;-146.27;88.42;42796.81;5076651;28;20074;-71
2024/02/17 09:09:00;;;;;;;19.38;6.18;;;;;;;-146.27;88.66;42830.63;5076152;28;20813;-72
2024/02/17 09:11:26;;;;;;;14.20;5.88;;;;;;;-146.27;88.93;42876.38;5081572;28;20035;-71
2024/02/17 09:13:51;;;;;;;11.35;5.47;;;;;;;-146.27;88.54;42894.28;5069996;28;20392;-71
2024/02/17 09:16:17;;;;;;;14.93;6.50;;;;;;;-146.27;88.51;42822.69;5067419;28;20021;-72
2024/02/17 09:18:42;;;;;;;11.65;5.63;;;;;;;-146.27;87.93;42767.00;5069002;28;20025;-73
2024/02/17 09:21:08;;;;;;;16.63;6.57;;;;;;;-146.27;87.96;42832.63;5069915;28;20063;-72
2024/02/17 09:23:34;;;;;;;17.20;6.68;;;;;;;-146.27;87.86;42784.88;5070563;28;20115;-76
2024/02/17 09:25:59;;;;;;;12.23;5.65;;;;;;;-146.27;87.32;42707.31;5063748;28;20144;-72
2024/02/17 09:28:26;;;;;;;16.25;6.00;;;;;;;-146.27;87.67;42753.06;5062482;28;20052;-72
2024/02/17 09:30:51;;;;;;;14.60;5.47;;;;;;;-146.27;87.66;42757.03;5069781;28;20097;-72
2024/02/17 09:33:19;;;;;;;12.18;5.53;;;;;;;-146.27;87.52;42840.56;5068509;28;20549;-71
2024/02/17 09:35:45;;;;;;;13.60;6.65;;;;;;;-146.27;87.86;42826.66;5075493;28;20024;-72
2024/02/17 09:38:10;;;;;;;16.48;6.68;;;;;;;-146.27;87.66;42772.97;5069493;28;20036;-73
2024/02/17 09:40:35;;;;;;;15.23;6.68;;;;;;;-146.27;87.62;42812.72;5071025;28;20027;-73
2024/02/17 09:43:01;;;;;;;19.83;6.03;;;;;;;-146.27;87.79;42790.84;5069340;28;20041;-74
2024/02/17 09:45:26;;;;;;;13.90;5.70;;;;;;;-146.27;87.78;42854.50;5065726;28;20535;-72
2024/02/17 09:47:54;;;;;;;14.90;5.85;;;;;;;-146.27;87.49;42790.84;5068493;28;20536;-72
2024/02/17 09:50:20;;;;;;;13.48;5.72;;;;;;;-146.27;87.65;42786.88;5071001;28;20111;-72
2024/02/17 09:52:49;;;;;;;17.40;6.57;;;;;;;-146.27;87.39;42828.66;5068699;28;20111;-72
2024/02/17 09:55:15;;;;;;;14.32;6.25;;;;;;;-146.27;87.13;42745.09;5068856;28;20054;-73
2024/02/17 09:57:42;;;;;;;10.02;5.18;;;;;;;-146.27;87.10;42770.97;5067116;28;20086;-72
2024/02/17 10:00:10;;;;;;;15.10;5.63;;;;;;;-146.27;86.57;42717.25;5068329;28;20480;-73
2024/02/17 10:02:36;;;;;;;12.32;6.43;;;;;;;-146.27;86.80;42727.22;5064371;28;20047;-73
2024/02/17 10:05:02;;;;;;;10.00;5.30;;;;;;;-146.27;86.52;42671.53;5067863;28;20120;-73
2024/02/17 10:07:28;;;;;;;15.00;6.10;;;;;;;-146.27;86.69;42794.84;5068259;28;20074;-73
2024/02/17 10:09:54;;;;;;;13.48;6.40;;;;;;;-146.27;87.31;42842.56;5069903;28;20043;-72
2024/02/17 10:12:19;;;;;;;16.38;6.22;;;;;;;-146.27;87.02;42830.63;5068684;28;20032;-73
2024/02/17 10:14:44;;;;;;;11.68;7.05;;;;;;;-146.27;86.18;42727.22;5068942;28;20029;-73
2024/02/17 10:17:12;;;;;;;11.07;5.28;;;;;;;-146.27;86.13;42826.66;5068195;28;20085;-73
2024/02/17 10:19:41;;;;;;;15.35;6.43;;;;;;;-146.27;85.87;42763.00;5069573;28;20089;-72
2024/02/17 10:22:06;;;;;;;16.42;6.32;;;;;;;-146.27;85.83;42786.88;5069930;28;20029;-73
2024/02/17 10:24:32;;;;;;;16.23;5.88;;;;;;;-146.27;85.55;42715.28;5068522;28;20052;-73
2024/02/17 10:26:57;;;;;;;14.48;6.13;;;;;;;-146.27;85.34;42679.47;5069491;28;20043;-71
2024/02/17 10:29:23;;;;;;;13.95;6.38;;;;;;;-146.27;85.71;42774.94;5069442;28;20028;-73
2024/02/17 10:31:49;;;;;;;13.38;5.97;;;;;;;-146.27;85.91;42814.72;5070144;28;20032;-73
2024/02/17 10:34:15;;;;;;;12.48;5.35;;;;;;;-146.27;85.97;42778.91;5069362;28;20035;-72
2024/02/17 10:36:42;;;;;;;18.00;6.22;;;;;;;-146.27;86.31;42814.72;5070107;28;20468;-72
2024/02/17 10:39:08;;;;;;;19.02;5.47;;;;;;;-146.27;85.96;42711.31;5069930;28;20021;-72
2024/02/17 10:41:37;;;;;;;15.10;6.55;;;;;;;-146.27;85.62;42711.31;5069564;28;20028;-73
2024/02/17 10:44:03;;;;;;;12.43;5.32;;;;;;;-146.27;85.83;42715.28;5069314;28;20032;-73
2024/02/17 10:46:31;;;;;;;13.60;6.03;;;;;;;-146.27;85.07;42675.50;5069535;28;20107;-73
2024/02/17 10:49:29;;;;;;;13.13;5.50;;;;;;;-146.27;85.23;42703.34;5073015;28;20028;-73
2024/02/17 10:52:08;;;;;;;14.20;5.97;;;;;;;-146.27;85.20;42755.06;5073094;28;20052;-73
2024/02/17 10:54:48;;;;;;;13.68;5.72;;;;;;;-146.27;85.73;42786.88;5066962;28;20020;-73
2024/02/17 10:57:16;;;;;;;14.90;6.07;;;;;;;-146.27;84.44;42707.31;5072255;28;20029;-71
2024/02/17 10:59:46;;;;;;;17.15;5.90;;;;;;;-146.27;84.83;42739.16;5073256;28;20021;-71
2024/02/17 11:02:15;;;;;;;11.27;5.65;;;;;;;-146.27;84.70;42695.38;5073157;28;20052;-71
2024/02/17 11:04:43;;;;;;;13.13;5.53;;;;;;;-146.27;84.07;42631.75;5070512;28;20020;-71
2024/02/17 11:07:10;;;;;;;14.55;6.10;;;;;;;-146.27;83.83;42649.66;5071757;28;20040;-71
2024/02/17 11:09:36;;;;;;;9.50;4.95;;;;;;;-146.27;83.39;42615.84;5074834;28;20074;-71
2024/02/17 11:12:28;;;;;;;11.38;4.95;;;;;;;-146.27;83.17;42635.72;5073317;28;20033;-73